Time;durP1;ratioP1;P1;durP2;ratioP2;P2;SDS_P1;SDS_P2;PMS_P1;PMS_P2;Temp;Humidity;BMP_temperature;BMP_pressure;BME280_temperature;BME280_humidity;BME280_pressure;Samples;Min_cycle;Max_cycle;Signal;HPM_P1;HPM_P2
2022/08/19 00:00:31;;;;;;;12.03;8.68;;;;;;;20.05;80.21;99285.85;1793018;78;20837;-61
2022/08/19 00:03:00;;;;;;;10.28;7.60;;;;;;;20.00;80.40;99282.83;1806036;78;21448;-61
2022/08/19 00:05:26;;;;;;;11.45;8.03;;;;;;;20.00;80.61;99284.15;1764295;80;20946;-61
2022/08/19 00:07:53;;;;;;;15.85;7.50;;;;;;;20.03;80.79;99288.66;1789159;78;21780;-61
2022/08/19 00:10:21;;;;;;;9.28;6.97;;;;;;;20.09;81.03;99289.91;1772813;80;20875;-61
2022/08/19 00:12:48;;;;;;;11.30;7.37;;;;;;;20.15;81.20;99286.67;1789182;78;20902;-61
2022/08/19 00:15:18;;;;;;;15.45;8.13;;;;;;;20.18;81.09;99285.05;1790659;78;21491;-61
2022/08/19 00:17:46;;;;;;;11.43;7.70;;;;;;;20.16;80.97;99282.20;1802540;78;21382;-61
2022/08/19 00:20:17;;;;;;;11.75;7.72;;;;;;;20.12;80.93;99284.31;1791395;78;20989;-61
2022/08/19 00:22:45;;;;;;;7.78;6.90;;;;;;;20.11;81.04;99290.60;1784167;78;21019;-61
2022/08/19 00:25:12;;;;;;;10.00;7.90;;;;;;;20.03;80.97;99292.64;1807127;78;20938;-61
2022/08/19 00:27:40;;;;;;;9.88;7.28;;;;;;;19.97;81.14;99291.03;1800249;78;21498;-61
2022/08/19 00:30:09;;;;;;;9.68;7.80;;;;;;;19.94;81.35;99292.64;1800522;78;20895;-61
2022/08/19 00:32:37;;;;;;;12.47;8.38;;;;;;;19.90;81.52;99292.93;1817902;78;21467;-61
2022/08/19 00:35:04;;;;;;;14.75;8.88;;;;;;;19.92;81.87;99298.59;1793080;79;20940;-61
2022/08/19 00:37:32;;;;;;;12.23;8.48;;;;;;;19.93;82.09;99297.61;1789321;78;20870;-61
2022/08/19 00:39:59;;;;;;;10.80;8.08;;;;;;;19.95;82.02;99299.63;1784507;78;20941;-61
2022/08/19 00:42:28;;;;;;;11.65;8.18;;;;;;;19.94;82.20;99296.62;1809860;78;21484;-62
2022/08/19 00:44:54;;;;;;;10.68;8.43;;;;;;;19.94;82.23;99303.23;1812243;78;21440;-61
2022/08/19 00:47:21;;;;;;;12.30;8.78;;;;;;;19.93;82.26;99303.73;1812469;78;20973;-61
2022/08/19 00:49:52;;;;;;;13.08;8.88;;;;;;;19.94;82.38;99301.92;1805069;78;21373;-61
2022/08/19 00:52:28;;;;;;;10.40;8.03;;;;;;;19.94;82.51;99302.78;1784758;79;20916;-61
2022/08/19 00:54:56;;;;;;;10.78;8.73;;;;;;;19.96;82.61;99303.94;1802938;78;20933;-61
2022/08/19 00:57:34;;;;;;;11.05;8.70;;;;;;;19.95;82.64;99308.41;1811775;78;21250;-61
2022/08/19 01:00:04;;;;;;;13.05;8.15;;;;;;;19.94;82.64;99308.08;1804013;78;20886;-62
2022/08/19 01:02:32;;;;;;;13.15;8.45;;;;;;;19.90;82.66;99307.50;1805803;78;20934;-61
2022/08/19 01:05:02;;;;;;;11.85;8.20;;;;;;;19.86;82.64;99310.10;1812548;78;20879;-61
2022/08/19 01:07:29;;;;;;;13.30;8.63;;;;;;;19.83;82.76;99302.94;1797934;79;20993;-61
2022/08/19 01:09:56;;;;;;;9.40;7.17;;;;;;;19.78;82.73;99303.34;1779461;79;21866;-61
2022/08/19 01:12:23;;;;;;;9.10;7.72;;;;;;;19.69;82.55;99308.18;1768092;79;21760;-61
2022/08/19 01:14:50;;;;;;;;;;;;;;;19.63;82.69;99304.71;1772835;79;20882;-61
2022/08/19 01:17:18;;;;;;;9.40;8.08;;;;;;;19.57;83.07;99303.95;1813852;78;20093;-61
2022/08/19 01:19:46;;;;;;;13.70;9.20;;;;;;;19.54;83.02;99302.91;1809906;78;20961;-61
2022/08/19 01:22:30;;;;;;;17.20;8.55;;;;;;;19.54;83.25;99302.91;1774027;79;21097;-61
2022/08/19 01:24:58;;;;;;;16.10;8.75;;;;;;;19.52;83.27;99304.86;1797148;78;21120;-61
2022/08/19 01:27:24;;;;;;;12.47;8.60;;;;;;;19.50;83.25;99305.50;1798394;78;21512;-61
2022/08/19 01:29:51;;;;;;;13.18;9.00;;;;;;;19.48;83.55;99303.48;1784836;80;20978;-61
2022/08/19 01:32:19;;;;;;;;;;;;;;;19.48;83.66;99299.02;1788311;78;20860;-61
2022/08/19 01:34:46;;;;;;;10.43;7.72;;;;;;;19.50;83.84;99307.66;1771584;80;21060;-61
2022/08/19 01:37:14;;;;;;;12.78;7.50;;;;;;;19.52;83.84;99304.86;1768236;80;21899;-61
2022/08/19 01:39:42;;;;;;;11.20;8.18;;;;;;;19.51;83.73;99303.20;1782097;80;20883;-61
2022/08/19 01:42:11;;;;;;;10.88;8.08;;;;;;;19.50;83.72;99305.50;1782326;80;20902;-61
2022/08/19 01:44:40;;;;;;;10.13;7.17;;;;;;;19.49;83.74;99305.14;1782995;80;20914;-61
2022/08/19 01:47:09;;;;;;;10.50;7.10;;;;;;;19.42;83.55;99300.41;1803641;78;21108;-61
2022/08/19 01:49:36;;;;;;;9.23;7.03;;;;;;;19.34;83.56;99300.27;1777591;80;20922;-61
2022/08/19 01:52:05;;;;;;;10.08;7.30;;;;;;;19.30;83.60;99305.99;1800697;78;21005;-61
2022/08/19 01:54:32;;;;;;;14.58;8.70;;;;;;;19.25;83.72;99302.42;1808389;78;20870;-61
2022/08/19 01:57:06;;;;;;;9.10;7.85;;;;;;;19.21;83.76;99302.33;1787408;78;20938;-61
2022/08/19 01:59:33;;;;;;;8.75;7.80;;;;;;;19.18;83.90;99306.58;1768544;79;21041;-62
2022/08/19 02:02:00;;;;;;;;;;;;;;;19.16;84.10;99304.58;1803844;78;20910;-61
2022/08/19 02:04:27;;;;;;;14.28;8.13;;;;;;;19.16;84.30;99300.13;1784118;80;20088;-61
2022/08/19 02:06:53;;;;;;;10.58;7.95;;;;;;;19.18;84.27;99298.64;1800547;78;20949;-61
2022/08/19 02:09:20;;;;;;;14.40;8.10;;;;;;;19.19;84.28;99296.37;1787536;80;20981;-61
2022/08/19 02:11:46;;;;;;;11.03;8.05;;;;;;;19.20;84.36;99295.38;1785903;78;21865;-61
2022/08/19 02:14:13;;;;;;;13.05;8.33;;;;;;;19.23;84.39;99299.07;1800728;78;20882;-61
2022/08/19 02:16:40;;;;;;;8.83;7.83;;;;;;;19.24;84.57;99296.80;1760550;80;21480;-61
2022/08/19 02:19:07;;;;;;;10.50;8.58;;;;;;;19.28;84.61;99298.17;1790249;78;20939;-61
2022/08/19 02:21:34;;;;;;;12.45;7.90;;;;;;;19.30;84.61;99300.70;1772908;79;20957;-61
2022/08/19 02:24:01;;;;;;;;;;;;;;;19.31;84.60;99305.84;1762022;80;21109;-61
2022/08/19 02:26:27;;;;;;;11.45;8.85;;;;;;;19.33;84.72;99303.89;1788577;79;24243;-61
2022/08/19 02:28:55;;;;;;;13.93;8.00;;;;;;;19.36;84.66;99306.27;1782140;79;20930;-61
2022/08/19 02:31:23;;;;;;;;;;;;;;;19.35;84.62;99300.63;1792226;79;20867;-61
2022/08/19 02:33:50;;;;;;;14.60;8.58;;;;;;;19.37;84.70;99299.98;1771950;79;20417;-61
2022/08/19 02:36:17;;;;;;;11.85;7.80;;;;;;;19.37;84.65;99299.98;1795918;78;26627;-61
2022/08/19 02:38:45;;;;;;;13.32;8.53;;;;;;;19.36;84.64;99290.38;1805174;78;21405;-61
2022/08/19 02:41:14;;;;;;;;;;;;;;;19.37;84.74;99292.04;1798921;78;20935;-61
2022/08/19 02:43:42;;;;;;;12.25;8.35;;;;;;;19.35;84.94;99287.39;1777739;80;20192;-61
2022/08/19 02:46:20;;;;;;;8.55;7.67;;;;;;;19.37;84.87;99286.75;1804190;78;20988;-62
2022/08/19 02:48:45;;;;;;;11.88;8.30;;;;;;;19.36;84.83;99282.44;1807883;78;21126;-61
2022/08/19 02:51:23;;;;;;;13.68;8.83;;;;;;;19.26;84.89;99257.77;1771256;78;20896;-61
2022/08/19 02:53:50;;;;;;;9.50;8.30;;;;;;;19.36;84.88;99282.44;1775497;80;21392;-61
2022/08/19 02:56:17;;;;;;;9.98;7.78;;;;;;;19.36;84.94;99286.41;1790044;78;20852;-61
2022/08/19 02:58:44;;;;;;;11.05;7.90;;;;;;;19.34;84.87;99289.67;1789207;79;21473;-61
2022/08/19 03:01:13;;;;;;;8.95;7.28;;;;;;;19.27;84.80;99291.22;1786909;79;21130;-61
2022/08/19 03:03:40;;;;;;;10.80;7.62;;;;;;;19.17;84.71;99290.36;1767672;78;20934;-61
2022/08/19 03:06:12;;;;;;;9.53;8.50;;;;;;;19.11;84.88;99290.92;1814558;78;21636;-61
2022/08/19 03:08:41;;;;;;;13.58;7.47;;;;;;;19.04;85.13;99287.97;1785808;78;20970;-61
2022/08/19 03:11:22;;;;;;;14.85;8.33;;;;;;;18.99;85.18;99287.08;1794629;78;20934;-61
2022/08/19 03:13:50;;;;;;;15.50;8.25;;;;;;;18.95;85.24;99286.98;1768921;80;21880;-61
2022/08/19 03:16:18;;;;;;;10.03;7.72;;;;;;;18.90;85.25;99278.61;1763850;79;20918;-61
2022/08/19 03:18:45;;;;;;;12.37;7.78;;;;;;;18.87;85.34;99286.83;1776063;79;20954;-61
2022/08/19 03:21:21;;;;;;;9.23;6.85;;;;;;;18.83;85.40;99284.11;1773502;79;24563;-61
2022/08/19 03:23:49;;;;;;;8.40;7.25;;;;;;;18.80;85.40;99281.74;1785969;80;20962;-61
2022/08/19 03:26:16;;;;;;;17.52;8.53;;;;;;;18.79;85.63;99281.38;1775173;80;21073;-61
2022/08/19 03:28:47;;;;;;;15.90;7.83;;;;;;;18.78;85.68;99287.64;1764151;80;21697;-61
2022/08/19 03:31:14;;;;;;;26.85;9.03;;;;;;;18.77;85.73;99289.95;1774577;80;21662;-61
2022/08/19 03:33:41;;;;;;;10.58;7.83;;;;;;;18.79;85.87;99291.95;1766345;80;21488;-61
2022/08/19 03:36:15;;;;;;;10.48;8.30;;;;;;;18.82;85.94;99291.71;1767745;80;20969;-61
2022/08/19 03:38:50;;;;;;;11.90;8.08;;;;;;;18.87;86.06;99288.14;1762640;80;20885;-61
2022/08/19 03:41:27;;;;;;;11.48;8.30;;;;;;;18.92;86.10;99281.14;1765387;80;20879;-61
2022/08/19 03:43:55;;;;;;;27.40;8.60;;;;;;;18.97;86.18;99285.05;1768633;80;20899;-61
2022/08/19 03:46:26;;;;;;;12.28;8.73;;;;;;;19.04;86.23;99281.84;1759384;80;20894;-61
2022/08/19 03:48:56;;;;;;;12.80;9.03;;;;;;;19.10;86.37;99276.86;1775178;79;20954;-61
2022/08/19 03:51:28;;;;;;;13.78;8.60;;;;;;;19.24;86.56;99275.63;1781956;80;21030;-61
2022/08/19 03:53:56;;;;;;;15.15;8.70;;;;;;;19.47;86.63;99276.66;1767677;80;20912;-61
2022/08/19 03:56:25;;;;;;;16.05;8.93;;;;;;;19.71;86.54;99275.74;1760271;80;20957;-61
2022/08/19 03:58:53;;;;;;;13.78;8.80;;;;;;;19.91;86.33;99279.19;1780579;80;21409;-61
2022/08/19 04:01:23;;;;;;;10.85;8.05;;;;;;;20.03;86.21;99281.20;1757884;81;21478;-61
2022/08/19 04:03:49;;;;;;;11.35;7.67;;;;;;;20.12;86.08;99282.98;1787017;78;21043;-61
2022/08/19 04:06:21;;;;;;;14.90;8.38;;;;;;;20.28;85.93;99276.59;1781463;80;20894;-61
2022/08/19 04:08:51;;;;;;;11.53;8.33;;;;;;;20.45;85.83;99279.45;1776395;80;20930;-61
2022/08/19 04:11:23;;;;;;;12.40;8.08;;;;;;;20.65;85.89;99279.73;1773799;80;21484;-61
2022/08/19 04:13:51;;;;;;;15.55;7.92;;;;;;;20.88;85.78;99283.30;1766758;80;21488;-62
2022/08/19 04:16:20;;;;;;;13.43;8.43;;;;;;;21.17;85.93;99286.61;1777243;80;21032;-61
2022/08/19 04:18:49;;;;;;;12.88;7.45;;;;;;;21.41;85.50;99285.19;1777404;80;20918;-61
2022/08/19 04:21:20;;;;;;;13.70;7.70;;;;;;;21.68;85.22;99297.55;1771620;80;20903;-62
2022/08/19 04:23:47;;;;;;;12.37;8.13;;;;;;;21.97;85.08;99289.27;1775613;79;20997;-62
2022/08/19 04:26:18;;;;;;;16.67;8.13;;;;;;;22.30;84.74;99297.48;1775784;79;21377;-61
2022/08/19 04:28:46;;;;;;;11.05;7.80;;;;;;;22.66;84.44;99286.66;1783783;79;21078;-61
2022/08/19 04:31:20;;;;;;;7.60;6.75;;;;;;;22.93;83.76;99291.73;1781793;78;21700;-62
2022/08/19 04:33:46;;;;;;;12.10;7.75;;;;;;;23.06;83.28;99289.16;1804564;78;20887;-62
2022/08/19 04:36:26;;;;;;;11.10;8.18;;;;;;;23.08;82.84;99283.15;1797661;79;20950;-61
2022/08/19 04:39:02;;;;;;;11.75;8.05;;;;;;;22.99;82.79;99285.83;1794530;79;20957;-61
2022/08/19 04:44:17;;;;;;;10.43;7.58;;;;;;;23.95;82.96;99283.56;1785801;80;21575;-61
2022/08/19 04:46:43;;;;;;;13.22;7.22;;;;;;;24.50;82.32;99286.25;1784584;79;20937;-62
2022/08/19 04:49:12;;;;;;;12.98;6.92;;;;;;;24.99;81.89;99287.88;1800028;79;20911;-62
2022/08/19 04:51:42;;;;;;;14.75;8.08;;;;;;;25.45;81.27;99278.56;1793250;79;21360;-62
2022/08/19 04:54:09;;;;;;;13.80;7.72;;;;;;;25.81;80.50;99281.94;1806162;79;21024;-62
2022/08/19 04:56:36;;;;;;;11.18;7.20;;;;;;;26.21;80.13;99279.89;1783915;80;20882;-61
2022/08/19 04:59:04;;;;;;;9.80;6.80;;;;;;;26.54;79.49;99275.84;1775482;80;20926;-62
2022/08/19 05:01:33;;;;;;;10.90;6.50;;;;;;;26.87;79.11;99280.78;1770464;80;20939;-62
2022/08/19 05:04:01;;;;;;;12.65;6.87;;;;;;;27.12;78.30;99280.45;1782339;80;21002;-63
2022/08/19 05:06:28;;;;;;;14.80;7.22;;;;;;;27.41;77.89;99284.87;1775073;80;21702;-62
2022/08/19 05:08:55;;;;;;;13.05;6.45;;;;;;;27.76;77.43;99287.67;1771841;79;20965;-62
2022/08/19 05:11:28;;;;;;;11.08;6.17;;;;;;;28.12;77.29;99279.50;1775211;79;21052;-62
2022/08/19 05:13:55;;;;;;;12.68;6.78;;;;;;;28.52;76.52;99283.25;1808095;79;20840;-62
2022/08/19 05:16:24;;;;;;;12.47;6.00;;;;;;;28.82;75.74;99287.50;1807698;79;21483;-62
2022/08/19 05:24:23;;;;;;;7.17;5.72;;;;;;;29.32;73.43;99280.83;1804537;79;21115;-63
2022/08/19 05:26:52;;;;;;;9.48;5.55;;;;;;;29.28;72.51;99274.22;1804605;79;21448;-62
2022/08/19 05:29:21;;;;;;;10.72;5.55;;;;;;;29.38;72.20;99273.80;1806860;79;20920;-62
2022/08/19 05:31:49;;;;;;;6.15;5.50;;;;;;;29.49;71.64;99270.50;1803703;79;20974;-62
2022/08/19 05:34:21;;;;;;;8.95;5.75;;;;;;;29.68;71.29;99273.45;1802329;79;20915;-62
2022/08/19 05:36:48;;;;;;;8.63;5.60;;;;;;;29.84;70.64;99273.86;1761814;79;21902;-63
2022/08/19 05:39:19;;;;;;;7.03;5.28;;;;;;;30.04;69.90;99272.48;1763460;80;20898;-63
2022/08/19 05:41:50;;;;;;;12.85;5.50;;;;;;;30.24;68.86;99264.91;1763106;79;21009;-63
2022/08/19 05:44:17;;;;;;;21.97;6.03;;;;;;;30.26;67.97;99270.92;1761075;80;21053;-63
2022/08/19 05:46:48;;;;;;;9.68;5.22;;;;;;;30.31;67.25;99268.42;1757011;81;20932;-63
2022/08/19 05:49:16;;;;;;;7.90;5.12;;;;;;;30.47;66.77;99277.39;1762174;78;20946;-63
2022/08/19 05:51:43;;;;;;;7.53;5.12;;;;;;;30.55;65.70;99285.21;1761627;81;20910;-63
2022/08/19 05:54:13;;;;;;;12.30;5.60;;;;;;;30.25;64.09;99283.56;1755512;79;21502;-62
2022/08/19 05:56:39;;;;;;;7.42;5.47;;;;;;;30.08;64.14;99288.54;1758576;79;21844;-62
2022/08/19 05:59:09;;;;;;;7.92;5.87;;;;;;;29.93;62.87;99287.92;1761124;80;20938;-63
2022/08/19 06:01:43;;;;;;;14.25;5.75;;;;;;;29.66;62.07;99291.98;1764125;79;20926;-62
2022/08/19 06:04:07;;;;;;;9.83;5.72;;;;;;;29.29;61.43;99297.38;1764046;80;21566;-64
2022/08/19 06:06:35;;;;;;;20.40;6.33;;;;;;;29.15;61.81;99307.80;1768319;81;20914;-63
2022/08/19 06:09:04;;;;;;;14.63;6.10;;;;;;;29.21;61.38;99313.20;1765710;80;21205;-62
2022/08/19 06:11:39;;;;;;;11.12;6.17;;;;;;;29.36;61.17;99309.51;1770561;80;20906;-62
2022/08/19 06:14:13;;;;;;;10.90;6.50;;;;;;;29.49;60.99;99312.20;1762162;80;21403;-62
2022/08/19 06:16:42;;;;;;;9.10;6.37;;;;;;;29.71;60.63;99308.01;1757672;81;20943;-62
2022/08/19 06:19:13;;;;;;;9.50;6.37;;;;;;;29.60;59.64;99306.73;1759457;81;21515;-62
2022/08/19 06:21:44;;;;;;;11.90;6.60;;;;;;;28.82;59.00;99319.73;1750243;81;21506;-61
2022/08/19 06:24:14;;;;;;;9.00;6.75;;;;;;;28.10;58.82;99319.12;1778649;79;20927;-62
2022/08/19 06:26:45;;;;;;;11.85;6.83;;;;;;;27.57;59.31;99312.77;1784807;79;20953;-61
2022/08/19 06:29:15;;;;;;;12.53;7.03;;;;;;;27.87;59.60;99317.50;1786580;79;21463;-61
2022/08/19 06:31:49;;;;;;;12.85;7.37;;;;;;;28.11;59.33;99318.08;1740993;79;20899;-60
2022/08/19 06:34:17;;;;;;;12.25;6.97;;;;;;;28.33;58.88;99321.53;1784527;79;21420;-60
2022/08/19 06:36:48;;;;;;;18.07;7.28;;;;;;;28.60;58.97;99314.50;1778658;79;20962;-62
2022/08/19 06:39:19;;;;;;;12.75;7.22;;;;;;;28.80;58.77;99315.11;1776366;79;20931;-61
2022/08/19 06:41:50;;;;;;;13.60;6.85;;;;;;;28.86;58.05;99310.27;1782730;80;20945;-61
2022/08/19 06:44:19;;;;;;;9.65;6.75;;;;;;;28.84;58.10;99309.11;1786017;78;20895;-61
2022/08/19 06:46:48;;;;;;;12.82;7.17;;;;;;;28.84;57.77;99309.63;1798992;78;21916;-62
2022/08/19 06:49:16;;;;;;;8.85;7.03;;;;;;;28.86;57.85;99307.58;1803381;78;20881;-61
2022/08/19 06:51:50;;;;;;;8.73;6.65;;;;;;;29.08;57.69;99299.72;1800720;78;20929;-61
2022/08/19 06:54:16;;;;;;;12.98;6.20;;;;;;;29.21;57.62;99306.48;1791107;79;21469;-61
2022/08/19 06:56:45;;;;;;;18.45;6.33;;;;;;;29.15;57.15;99304.58;1777086;80;21036;-61
2022/08/19 06:59:17;;;;;;;14.50;7.08;;;;;;;29.21;57.15;99306.48;1784264;79;21057;-61
2022/08/19 07:01:49;;;;;;;9.93;5.97;;;;;;;29.21;56.43;99298.42;1775402;80;20934;-61
2022/08/19 07:04:19;;;;;;;9.93;6.37;;;;;;;29.10;56.57;99293.64;1810417;78;20946;-61
2022/08/19 07:06:46;;;;;;;11.05;6.28;;;;;;;29.11;56.55;99293.12;1798765;78;20945;-61
2022/08/19 07:09:16;;;;;;;10.50;6.83;;;;;;;29.13;56.33;99300.47;1817188;78;21527;-61
2022/08/19 07:11:49;;;;;;;12.33;6.20;;;;;;;29.12;56.37;99304.99;1785751;78;22104;-61
2022/08/19 07:14:19;;;;;;;11.08;6.03;;;;;;;29.23;56.08;99304.40;1765965;79;20959;-61
2022/08/19 07:16:49;;;;;;;14.15;6.33;;;;;;;29.21;56.11;99299.77;1785662;79;20902;-61
2022/08/19 07:19:17;;;;;;;9.28;6.03;;;;;;;29.09;55.94;99302.71;1772465;79;20953;-61
2022/08/19 07:21:44;;;;;;;8.48;6.15;;;;;;;28.93;55.72;99304.38;1778461;79;20942;-61
2022/08/19 07:24:12;;;;;;;10.20;6.50;;;;;;;28.56;55.69;99306.50;1774100;79;21027;-61
2022/08/19 07:26:42;;;;;;;10.95;6.25;;;;;;;28.26;56.01;99297.34;1766192;80;21481;-61
2022/08/19 07:29:11;;;;;;;12.82;6.25;;;;;;;28.18;55.99;99301.52;1766082;80;20906;-61
2022/08/19 07:31:37;;;;;;;9.05;6.62;;;;;;;28.07;56.08;99306.09;1757135;80;20999;-61
2022/08/19 07:34:08;;;;;;;9.08;6.53;;;;;;;27.99;56.28;99301.70;1768871;80;20922;-61
2022/08/19 07:36:40;;;;;;;15.48;7.25;;;;;;;27.96;56.57;99306.63;1750624;80;23491;-61
2022/08/19 07:39:12;;;;;;;12.30;6.95;;;;;;;28.15;56.79;99297.89;1758328;80;20958;-61
2022/08/19 07:41:39;;;;;;;10.90;7.20;;;;;;;28.22;56.73;99294.72;1766874;79;21503;-63
2022/08/19 07:44:07;;;;;;;11.53;7.58;;;;;;;28.42;56.96;99300.72;1763005;80;20974;-63
2022/08/19 07:46:39;;;;;;;26.15;6.80;;;;;;;28.52;56.83;99300.71;1755429;80;20950;-63
2022/08/19 07:49:18;;;;;;;15.43;7.72;;;;;;;28.60;57.02;99306.44;1757327;80;20970;-63
2022/08/19 07:51:36;;;;;;;13.20;7.33;;;;;;;28.75;56.94;99304.42;1758752;80;20946;-63
2022/08/19 07:54:03;;;;;;;;;;;;;;;28.72;56.43;99304.01;1759797;79;21531;-63
2022/08/19 07:56:30;;;;;;;12.07;7.83;;;;;;;28.81;56.80;99296.60;1773226;80;20077;-63
2022/08/19 07:58:57;;;;;;;8.93;5.72;;;;;;;28.86;56.54;99298.17;1766818;80;21046;-63
2022/08/19 08:01:27;;;;;;;11.12;6.50;;;;;;;28.86;55.97;99299.52;1773608;80;21048;-62
2022/08/19 08:09:34;;;;;;;10.95;7.08;;;;;;;28.67;55.80;99301.09;1757027;79;20939;-63
2022/08/19 08:12:06;;;;;;;10.78;6.58;;;;;;;28.49;55.76;99298.95;1764440;80;20950;-63
2022/08/19 08:14:38;;;;;;;15.70;6.20;;;;;;;28.39;55.81;99295.75;1758119;79;22752;-63
2022/08/19 08:17:06;;;;;;;11.28;6.42;;;;;;;28.38;55.86;99296.79;1764658;80;20914;-63
2022/08/19 08:19:33;;;;;;;11.18;6.42;;;;;;;28.47;56.06;99303.68;1756859;79;20918;-63
2022/08/19 08:22:01;;;;;;;17.10;6.30;;;;;;;28.63;55.98;99299.84;1765886;80;21425;-63
2022/08/19 08:24:30;;;;;;;10.20;6.28;;;;;;;28.66;56.00;99297.58;1765454;79;20953;-63
2022/08/19 08:26:59;;;;;;;11.43;6.67;;;;;;;28.72;56.06;99295.42;1780618;79;21076;-63
2022/08/19 08:29:29;;;;;;;9.48;6.05;;;;;;;28.86;55.96;99290.11;1785380;79;20927;-63
2022/08/19 08:31:56;;;;;;;10.18;6.10;;;;;;;29.12;56.00;99296.11;1773345;79;20904;-63
2022/08/19 08:34:23;;;;;;;8.30;5.90;;;;;;;29.29;55.76;99293.87;1784111;78;20957;-63
2022/08/19 08:36:51;;;;;;;16.10;6.20;;;;;;;29.44;55.86;99294.52;1803333;78;20933;-63
2022/08/19 08:39:21;;;;;;;13.58;6.10;;;;;;;29.53;55.76;99291.94;1771935;79;21149;-63
2022/08/19 08:42:16;;;;;;;10.05;5.78;;;;;;;29.64;55.32;99290.01;1777698;80;20939;-63
2022/08/19 08:44:55;;;;;;;17.07;6.30;;;;;;;29.63;55.37;99289.71;1764024;79;21499;-63
2022/08/19 08:47:26;;;;;;;7.72;5.37;;;;;;;29.72;55.06;99286.81;1780435;80;21468;-63
2022/08/19 08:49:58;;;;;;;7.70;5.47;;;;;;;29.69;54.82;99280.47;1768007;80;20969;-63
2022/08/19 08:52:29;;;;;;;14.80;6.12;;;;;;;29.69;54.68;99284.02;1765782;80;21577;-63
2022/08/19 08:54:59;;;;;;;11.57;6.22;;;;;;;29.68;54.33;99284.21;1749734;80;20954;-63
2022/08/19 08:57:54;;;;;;;6.62;5.05;;;;;;;29.53;53.58;99275.80;1770062;80;20899;-63
2022/08/19 09:00:29;;;;;;;12.30;6.15;;;;;;;29.50;53.74;99282.12;1777706;79;20964;-63
2022/08/19 09:02:57;;;;;;;7.72;5.45;;;;;;;29.61;54.15;99279.63;1777154;79;20938;-63
2022/08/19 09:05:44;;;;;;;10.60;6.00;;;;;;;29.94;53.95;99272.10;1780993;78;21127;-63
2022/08/19 09:08:35;;;;;;;14.63;6.30;;;;;;;30.11;53.62;99274.66;1805523;78;20918;-63
2022/08/19 09:11:07;;;;;;;12.55;6.22;;;;;;;30.25;53.44;99277.33;1805374;78;20879;-61
2022/08/19 09:14:10;;;;;;;10.45;6.10;;;;;;;30.36;53.25;99261.89;1804951;78;21433;-64
2022/08/19 09:16:40;;;;;;;11.60;5.70;;;;;;;30.40;52.47;99258.25;1814003;78;20926;-61
2022/08/19 09:19:07;;;;;;;10.28;5.95;;;;;;;30.28;51.64;99266.98;1787702;79;21209;-61
2022/08/19 09:21:34;;;;;;;9.60;5.70;;;;;;;30.14;51.67;99262.64;1780985;79;20934;-62
2022/08/19 09:24:04;;;;;;;11.03;6.90;;;;;;;30.21;51.84;99262.61;1810229;78;20892;-62
2022/08/19 09:26:32;;;;;;;14.30;6.17;;;;;;;30.27;51.55;99268.53;1787065;80;21465;-62
2022/08/19 09:29:01;;;;;;;9.08;6.03;;;;;;;30.23;51.12;99275.39;1806719;78;20916;-62
2022/08/19 09:31:29;;;;;;;7.78;6.15;;;;;;;30.14;50.96;99267.17;1790265;80;21115;-62
2022/08/19 09:33:57;;;;;;;8.58;5.95;;;;;;;30.09;51.39;99265.95;1806919;78;20991;-61
2022/08/19 09:36:26;;;;;;;12.43;5.45;;;;;;;30.23;51.63;99268.66;1774602;80;20914;-61
2022/08/19 09:38:54;;;;;;;11.45;6.35;;;;;;;30.38;51.64;99259.80;1769667;80;20953;-61
2022/08/19 09:41:24;;;;;;;12.33;6.00;;;;;;;30.44;51.15;99260.28;1773692;80;20954;-61
2022/08/19 09:43:55;;;;;;;9.70;6.15;;;;;;;30.32;50.73;99253.39;1778089;80;21051;-61
2022/08/19 09:46:23;;;;;;;10.53;6.30;;;;;;;30.14;50.68;99255.06;1783090;79;21436;-61
2022/08/19 09:48:51;;;;;;;12.68;6.25;;;;;;;30.26;50.96;99252.08;1775925;80;21420;-60
2022/08/19 09:51:26;;;;;;;8.50;5.80;;;;;;;30.43;50.76;99255.95;1782978;80;20961;-61
2022/08/19 09:53:56;;;;;;;17.35;5.80;;;;;;;30.33;50.43;99255.55;1771605;80;20938;-60
2022/08/19 09:56:23;;;;;;;11.93;5.53;;;;;;;30.06;49.65;99244.84;1781088;79;21100;-61
2022/08/19 09:58:50;;;;;;;9.83;5.20;;;;;;;29.91;50.13;99255.00;1769090;80;20922;-61
2022/08/19 10:01:18;;;;;;;;;;;;;;;29.99;50.00;99252.09;1766044;80;20895;-61
2022/08/19 10:03:49;;;;;;;10.78;4.78;;;;;;;30.08;49.88;99250.00;1774392;79;20084;-61
2022/08/19 10:06:18;;;;;;;10.03;4.92;;;;;;;30.04;50.08;99246.91;1769751;80;21503;-61
2022/08/19 10:08:46;;;;;;;8.80;5.42;;;;;;;30.25;50.24;99248.56;1775230;80;21048;-61
2022/08/19 10:11:15;;;;;;;8.43;5.75;;;;;;;30.36;49.47;99235.45;1772452;80;21100;-60
2022/08/19 10:13:44;;;;;;;9.60;5.87;;;;;;;30.26;49.56;99242.65;1772855;80;20879;-61
2022/08/19 10:16:15;;;;;;;9.88;5.12;;;;;;;30.21;49.81;99235.69;1765620;80;20939;-60
2022/08/19 10:18:43;;;;;;;8.65;5.62;;;;;;;30.21;49.59;99242.42;1765444;79;20937;-61
2022/08/19 10:21:17;;;;;;;8.43;5.35;;;;;;;30.14;49.72;99242.95;1769547;80;21091;-61
2022/08/19 10:23:47;;;;;;;9.03;4.78;;;;;;;30.07;49.63;99242.97;1766421;80;20953;-61
2022/08/19 10:26:18;;;;;;;13.58;5.03;;;;;;;29.97;49.62;99235.84;1759338;80;20954;-61
2022/08/19 10:28:45;;;;;;;10.40;6.30;;;;;;;29.89;48.79;99230.19;1760782;81;20929;-61
2022/08/19 10:31:20;;;;;;;10.43;5.78;;;;;;;29.91;49.65;99233.47;1758338;81;20949;-61
2022/08/19 10:33:48;;;;;;;16.45;5.80;;;;;;;30.10;49.66;99228.56;1758341;81;21459;-61
2022/08/19 10:36:22;;;;;;;11.80;6.03;;;;;;;30.21;49.78;99227.61;1756715;81;20942;-61
2022/08/19 10:38:52;;;;;;;8.78;5.58;;;;;;;30.23;49.92;99233.66;1759860;81;21035;-61
2022/08/19 10:41:25;;;;;;;10.08;5.67;;;;;;;30.16;49.46;99232.80;1764657;81;20926;-61
2022/08/19 10:43:56;;;;;;;8.85;5.40;;;;;;;30.24;49.66;99227.22;1761774;81;20938;-61
2022/08/19 10:46:26;;;;;;;11.73;5.45;;;;;;;30.41;49.62;99224.35;1758939;81;21090;-61
2022/08/19 10:48:54;;;;;;;12.98;5.62;;;;;;;30.55;49.74;99221.91;1757874;80;20972;-61
2022/08/19 10:54:07;;;;;;;11.12;5.28;;;;;;;30.83;49.58;99204.59;1766304;80;20911;-61
2022/08/19 10:56:52;;;;;;;16.00;4.97;;;;;;;30.96;49.04;99209.91;1769367;80;20930;-61
2022/08/19 10:59:27;;;;;;;8.98;5.30;;;;;;;31.11;48.62;99201.50;1753666;81;21035;-61
2022/08/19 11:01:59;;;;;;;13.60;5.20;;;;;;;31.15;48.35;99203.26;1763775;80;21407;-61
2022/08/19 11:04:26;;;;;;;9.58;4.45;;;;;;;31.28;48.14;99201.78;1765055;80;20953;-61
2022/08/19 11:06:53;;;;;;;9.45;4.97;;;;;;;31.47;48.10;99205.93;1766368;80;20968;-61
2022/08/19 11:09:31;;;;;;;9.23;4.45;;;;;;;31.47;47.39;99191.09;1766562;80;20929;-61
2022/08/19 11:11:56;;;;;;;6.40;4.30;;;;;;;31.43;47.31;99184.80;1759461;81;21104;-60
2022/08/19 11:14:25;;;;;;;9.48;5.20;;;;;;;31.28;47.03;99177.52;1760923;81;20961;-60
2022/08/19 11:16:55;;;;;;;16.07;4.80;;;;;;;31.24;46.98;99179.02;1762030;80;20898;-61
2022/08/19 11:19:23;;;;;;;11.33;5.03;;;;;;;31.18;46.52;99171.80;1762866;81;21495;-61
2022/08/19 11:21:53;;;;;;;14.95;5.20;;;;;;;31.10;46.60;99174.77;1765823;80;20937;-61
2022/08/19 11:24:24;;;;;;;10.63;4.70;;;;;;;31.05;46.17;99167.86;1767040;80;21777;-61
2022/08/19 11:26:56;;;;;;;12.15;5.22;;;;;;;31.14;46.22;99161.95;1783550;80;21404;-61
2022/08/19 11:29:25;;;;;;;7.22;5.12;;;;;;;31.17;45.86;99167.44;1785011;80;20887;-60
2022/08/19 11:31:55;;;;;;;9.18;5.47;;;;;;;31.16;45.86;99165.80;1783381;80;20960;-60
2022/08/19 11:34:31;;;;;;;7.72;4.80;;;;;;;31.07;45.85;99177.37;1754483;80;21522;-60
2022/08/19 11:37:00;;;;;;;8.60;5.42;;;;;;;31.05;46.13;99163.81;1777895;79;21643;-61
2022/08/19 11:39:30;;;;;;;6.75;5.03;;;;;;;31.09;46.22;99173.09;1745450;81;21815;-61
2022/08/19 11:41:59;;;;;;;12.23;5.53;;;;;;;31.12;45.75;99164.60;1777917;80;20915;-60
2022/08/19 11:44:30;;;;;;;11.75;5.40;;;;;;;30.92;45.62;99152.09;1788979;80;21475;-61
2022/08/19 11:46:55;;;;;;;8.93;5.03;;;;;;;30.82;46.14;99167.91;1769421;80;20974;-61
2022/08/19 11:49:22;;;;;;;13.38;5.15;;;;;;;30.80;46.09;99156.52;1776954;80;21040;-61
2022/08/19 11:51:50;;;;;;;7.37;4.95;;;;;;;30.81;46.29;99158.19;1761796;80;20937;-61
2022/08/19 11:54:18;;;;;;;9.95;5.50;;;;;;;30.89;46.39;99139.06;1769512;79;20962;-61
2022/08/19 11:56:45;;;;;;;11.08;4.83;;;;;;;30.93;46.87;99147.00;1762725;80;20915;-61